createdAt,value
2016-02-24T00:00:13.751Z,99.99
2016-02-24T00:01:39.598Z,99.99
2016-02-24T00:02:17.710Z,99.99
2016-02-24T00:03:43.525Z,99.99
2016-02-24T00:04:34.512Z,99.99
2016-02-24T00:05:53.078Z,99.99
2016-02-24T00:06:50.517Z,99.99
2016-02-24T00:07:50.520Z,99.99
2016-02-24T00:09:08.932Z,99.99
2016-02-24T00:10:05.903Z,99.99
2016-02-24T00:11:37.218Z,99.99
2016-02-24T00:12:21.112Z,99.99
2016-02-24T00:13:21.129Z,99.99
2016-02-24T00:16:02.012Z,99.99
2016-02-24T00:16:36.340Z,99.99
2016-02-24T00:19:17.317Z,99.99
2016-02-24T00:20:17.352Z,99.99
2016-02-24T00:21:01.292Z,99.99
2016-02-24T00:22:10.842Z,99.99
2016-02-24T00:23:36.531Z,99.99
2016-02-24T00:26:01.306Z,99.99
2016-02-24T00:29:42.798Z,99.99
2016-02-24T00:30:42.801Z,99.99
2016-02-24T00:31:42.819Z,99.99
2016-02-24T00:32:55.572Z,99.99
2016-02-24T00:33:42.950Z,99.99
2016-02-24T00:35:08.516Z,99.9
2016-02-24T00:35:46.787Z,99.99
2016-02-24T00:39:24.470Z,99.99
2016-02-24T00:40:08.379Z,99.99
2016-02-24T00:41:17.913Z,99.99
2016-02-24T00:42:43.603Z,99.99
2016-02-24T00:44:58.799Z,99.9
2016-02-24T00:45:58.802Z,99.99
2016-02-24T00:47:05.085Z,99.99
2016-02-24T00:47:58.838Z,99.95
2016-02-24T00:49:18.045Z,99.99
2016-02-24T00:50:11.593Z,99.99
2016-02-24T00:52:39.520Z,99.99
2016-02-24T00:54:48.448Z,99.99
2016-02-24T00:55:48.467Z,99.99
2016-02-24T00:57:01.206Z,99.99
2016-02-24T00:57:48.503Z,99.99
2016-02-24T01:01:07.591Z,99.99
2016-02-24T01:02:10.798Z,99.99
2016-02-24T01:03:20.347Z,99.99
2016-02-24T01:04:29.897Z,99.99
2016-02-24T01:05:29.931Z,99.99
2016-02-24T01:06:33.049Z,99.99
2016-02-24T01:07:45.754Z,99.99
2016-02-24T01:08:36.038Z,99.99
2016-02-24T01:09:45.602Z,99.99
2016-02-24T01:11:11.280Z,99.99
2016-02-24T01:12:20.829Z,99.99
2016-02-24T01:13:52.785Z,99.99
2016-02-24T01:14:31.037Z,99.99
2016-02-24T01:15:56.731Z,99.99
2016-02-24T01:16:38.028Z,99.99
2016-02-24T01:18:00.673Z,99.99
2016-02-24T01:18:44.595Z,99.99
2016-02-24T01:19:44.614Z,99.99
2016-02-24T01:21:15.931Z,99.99
2016-02-24T01:21:59.809Z,99.99
2016-02-24T01:22:59.812Z,99.99
2016-02-24T01:24:06.081Z,99.99
2016-02-24T01:25:12.567Z,99.99
2016-02-24T01:26:06.117Z,99.99
2016-02-24T01:27:25.541Z,99.99
2016-02-24T01:28:29.451Z,99.99
2016-02-24T01:30:00.753Z,99.99
2016-02-24T01:30:44.831Z,99.99
2016-02-24T01:31:44.865Z,99.99
2016-02-24T01:32:44.883Z,99.99
2016-02-24T01:33:44.839Z,99.99
2016-02-24T01:34:44.842Z,99.99
2016-02-24T01:35:57.613Z,99.99
2016-02-24T01:36:57.834Z,99.99
2016-02-24T01:38:10.556Z,99.99
2016-02-24T01:39:04.121Z,99.99
2016-02-24T01:40:16.233Z,99.99
2016-02-24T01:41:19.345Z,99.99
2016-02-24T01:42:25.816Z,99.99
2016-02-24T01:43:25.834Z,99.99
2016-02-24T01:45:35.403Z,99.99
2016-02-24T01:46:35.405Z,99.99
2016-02-24T01:47:35.423Z,99.99
2016-02-24T01:48:35.426Z,99.99
2016-02-24T01:49:48.179Z,99.99
2016-02-24T01:50:48.181Z,99.99
2016-02-24T01:51:54.684Z,99.99
2016-02-24T01:52:35.484Z,99.99
2016-02-24T01:54:06.803Z,99.99
2016-02-24T01:54:50.709Z,99.99
2016-02-24T01:56:09.932Z,99.99
2016-02-24T01:57:00.076Z,99.99
2016-02-24T01:59:16.097Z,99.99
2016-02-24T02:00:16.115Z,99.99
2016-02-24T02:01:28.867Z,99.99
2016-02-24T02:02:28.902Z,99.99
2016-02-24T02:03:35.372Z,99.99
2016-02-24T02:04:35.375Z,99.99
2016-02-24T02:05:19.237Z,99.99
2016-02-24T02:06:19.255Z,99.99
2016-02-24T02:07:19.274Z,99.99
2016-02-24T02:08:38.480Z,99.99
2016-02-24T02:09:25.202Z,99.99
2016-02-24T02:10:23.798Z,99.99
2016-02-24T02:12:39.007Z,99.99
2016-02-24T02:13:39.025Z,99.99
2016-02-24T02:14:51.762Z,99.99
2016-02-24T02:15:39.248Z,99.99
2016-02-24T02:16:39.049Z,99.99
2016-02-24T02:17:39.067Z,99.99
2016-02-24T02:18:45.351Z,99.99
2016-02-24T02:19:39.088Z,99.99
2016-02-24T02:20:51.840Z,99.99
2016-02-24T02:21:45.375Z,99.99
2016-02-24T02:24:15.914Z,99.99
2016-02-24T02:24:50.273Z,99.99
2016-02-24T02:27:09.906Z,99.99
2016-02-24T02:28:06.862Z,99.99
2016-02-24T02:29:13.147Z,99.99
2016-02-24T02:30:06.915Z,99.99
2016-02-24T02:31:19.652Z,99.99
2016-02-24T02:32:06.936Z,99.99
2016-02-24T02:33:26.236Z,99.99
2016-02-24T02:34:19.675Z,99.99
2016-02-24T02:35:38.272Z,99.99
2016-02-24T02:36:26.243Z,99.99
2016-02-24T02:37:06.808Z,99.99
2016-02-24T02:38:26.216Z,99.99
2016-02-24T02:39:10.094Z,99.99
2016-02-24T02:40:29.316Z,99.99
2016-02-24T02:41:13.272Z,99.99
2016-02-24T02:42:35.634Z,99.99
2016-02-24T02:43:48.590Z,99.99
2016-02-24T02:44:32.452Z,99.99
2016-02-24T02:45:58.145Z,99.99
2016-02-24T02:47:07.679Z,99.99
2016-02-24T02:48:07.698Z,99.99
2016-02-24T02:48:36.416Z,99.99
2016-02-24T02:49:36.528Z,99.99
2016-02-24T02:50:36.421Z,99.99
2016-02-24T02:51:36.439Z,99.99
2016-02-24T02:52:36.459Z,99.99
2016-02-24T02:53:36.461Z,99.99
2016-02-24T02:54:42.744Z,99.99
2016-02-24T02:55:44.170Z,99.99
2016-02-24T02:56:49.219Z,99.99
2016-02-24T02:58:02.193Z,99.99
2016-02-24T02:58:49.256Z,99.99
2016-02-24T02:59:36.539Z,99.99
2016-02-24T03:01:02.216Z,99.99
2016-02-24T03:01:36.560Z,99.99
2016-02-24T03:03:46.175Z,99.99
2016-02-24T03:04:46.177Z,99.99
2016-02-24T03:05:58.933Z,99.99
2016-02-24T03:06:52.496Z,99.99
2016-02-24T03:08:05.439Z,99.99
2016-02-24T03:08:58.972Z,99.99
2016-02-24T03:10:11.944Z,99.99
2016-02-24T03:10:46.272Z,99.99
2016-02-24T03:12:55.777Z,99.99
2016-02-24T03:13:55.811Z,99.99
2016-02-24T03:15:02.676Z,99.99
2016-02-24T03:17:11.761Z,99.99
2016-02-24T03:18:11.780Z,99.99
2016-02-24T03:19:11.782Z,99.99
2016-02-24T03:20:11.784Z,99.99
2016-02-24T03:21:11.819Z,99.99
2016-02-24T03:22:31.024Z,99.99
2016-02-24T03:23:24.589Z,99.99
2016-02-24T03:24:37.513Z,99.99
2016-02-24T03:25:31.063Z,99.99
2016-02-24T03:26:40.706Z,99.99
2016-02-24T03:27:15.022Z,99.99
2016-02-24T03:28:15.649Z,99.99
2016-02-24T03:29:28.230Z,99.99
2016-02-24T03:30:28.248Z,99.99
2016-02-24T03:31:40.985Z,99.99
2016-02-24T03:32:28.270Z,99.99
2016-02-24T03:33:28.272Z,99.99
2016-02-24T03:34:34.572Z,99.99
2016-02-24T03:35:28.293Z,99.99
2016-02-24T03:36:28.311Z,99.99
2016-02-24T03:37:28.330Z,99.99
2016-02-24T03:38:28.333Z,99.99
2016-02-24T03:39:41.101Z,99.99
2016-02-24T03:40:34.617Z,99.99
2016-02-24T03:41:28.342Z,99.99
2016-02-24T03:42:28.348Z,99.99
2016-02-24T03:43:59.657Z,99.99
2016-02-24T03:44:43.548Z,99.99
2016-02-24T03:45:43.554Z,99.99
2016-02-24T03:46:43.554Z,99.99
2016-02-24T03:47:43.583Z,99.99
2016-02-24T03:48:49.831Z,99.99
2016-02-24T03:49:45.018Z,99.99
2016-02-24T03:51:02.783Z,99.99
2016-02-24T03:51:46.642Z,99.99
2016-02-24T03:53:09.503Z,99.99
2016-02-24T03:53:53.394Z,99.99
2016-02-24T03:54:53.380Z,99.99
2016-02-24T03:55:53.381Z,99.99
2016-02-24T03:56:53.399Z,99.99
2016-02-24T03:57:53.418Z,99.99
2016-02-24T03:58:59.702Z,99.99
2016-02-24T03:59:53.452Z,99.99
2016-02-24T04:00:53.454Z,99.99
2016-02-24T04:01:53.566Z,99.99
2016-02-24T04:02:53.459Z,99.99
2016-02-24T04:03:53.477Z,99.99
2016-02-24T04:04:53.484Z,99.99
2016-02-24T04:05:54.941Z,99.99
2016-02-24T04:06:53.522Z,99.99
2016-02-24T04:07:53.540Z,99.99
2016-02-24T04:08:54.949Z,99.99
2016-02-24T04:09:53.561Z,99.99
2016-02-24T04:10:53.548Z,99.99
2016-02-24T04:12:06.319Z,99.99
2016-02-24T04:13:19.259Z,99.99
2016-02-24T04:13:53.587Z,99.99
2016-02-24T04:15:25.530Z,99.99
2016-02-24T04:16:28.595Z,99.99
2016-02-24T04:18:43.819Z,99.99
2016-02-24T04:19:43.807Z,99.99
2016-02-24T04:20:43.824Z,99.99
2016-02-24T04:21:43.844Z,99.99
2016-02-24T04:22:43.861Z,99.99
2016-02-24T04:23:43.864Z,99.99
2016-02-24T04:24:43.867Z,99.99
2016-02-24T04:25:43.885Z,99.99
2016-02-24T04:26:43.904Z,99.99
2016-02-24T04:28:09.613Z,99.99
2016-02-24T04:28:43.925Z,99.99
2016-02-24T04:30:59.101Z,99.99
2016-02-24T04:31:59.121Z,99.99
2016-02-24T04:32:59.923Z,99.99
2016-02-24T04:33:59.141Z,99.99
2016-02-24T04:35:18.365Z,99.99
2016-02-24T04:36:06.742Z,99.99
2016-02-24T04:38:13.326Z,99.99
2016-02-24T04:39:13.298Z,99.99
2016-02-24T04:40:19.597Z,99.99
2016-02-24T04:41:32.553Z,99.99
2016-02-24T04:42:32.556Z,99.99
2016-02-24T04:43:44.668Z,99.99
2016-02-24T04:44:13.375Z,99.99
2016-02-24T04:45:13.392Z,99.99
2016-02-24T04:48:35.635Z,99.99
2016-02-24T04:49:38.731Z,99.99
2016-02-24T04:52:19.583Z,99.99
2016-02-24T04:53:45.277Z,99.99
2016-02-24T04:54:55.015Z,99.99
2016-02-24T04:55:48.579Z,99.99
2016-02-24T04:56:58.128Z,99.99
2016-02-24T04:57:42.022Z,99.99
2016-02-24T04:58:51.572Z,99.99
2016-02-24T05:00:17.374Z,99.99
2016-02-24T05:00:51.592Z,99.99
2016-02-24T05:02:22.911Z,99.99
2016-02-24T05:02:54.739Z,99.99
2016-02-24T05:03:54.772Z,99.99
2016-02-24T05:05:09.950Z,99.99
2016-02-24T05:06:09.952Z,99.99
2016-02-24T05:07:09.971Z,99.99
2016-02-24T05:08:09.974Z,99.99
2016-02-24T05:09:09.991Z,99.99
2016-02-24T05:10:10.010Z,99.99
2016-02-24T05:11:09.997Z,99.99
2016-02-24T05:12:22.782Z,99.99
2016-02-24T05:13:10.643Z,99.99
2016-02-24T05:14:29.271Z,99.99
2016-02-24T05:15:10.055Z,99.99
2016-02-24T05:16:10.074Z,99.99
2016-02-24T05:17:10.076Z,99.99
2016-02-24T05:18:22.876Z,99.99
2016-02-24T05:19:10.175Z,99.99
2016-02-24T05:20:29.334Z,99.99
2016-02-24T05:21:26.086Z,99.99
2016-02-24T05:22:26.059Z,99.99
2016-02-24T05:23:51.686Z,99.99
2016-02-24T05:24:57.329Z,99.99
2016-02-24T05:25:57.348Z,99.99
2016-02-24T05:26:26.147Z,99.99
2016-02-24T05:27:26.072Z,99.99
2016-02-24T05:28:26.168Z,99.99
2016-02-24T05:29:26.108Z,99.99
2016-02-24T05:30:26.158Z,99.99
2016-02-24T05:31:38.847Z,99.99
2016-02-24T05:32:38.850Z,99.99
2016-02-24T05:33:51.806Z,99.99
2016-02-24T05:36:39.018Z,99.99
2016-02-24T05:37:39.223Z,99.99
2016-02-24T05:38:51.774Z,99.99
2016-02-24T05:39:51.885Z,99.99
2016-02-24T05:41:04.687Z,99.99
2016-02-24T05:43:51.912Z,99.99
2016-02-24T05:44:51.914Z,99.99
2016-02-24T05:47:04.547Z,99.99
2016-02-24T05:48:32.815Z,99.99
2016-02-24T05:49:42.178Z,99.99
2016-02-24T05:52:23.092Z,99.99
2016-02-24T05:52:57.420Z,99.99
2016-02-24T05:55:12.616Z,99.99
2016-02-24T05:56:12.618Z,99.99
2016-02-24T05:57:12.825Z,99.99
2016-02-24T05:58:12.639Z,99.99
2016-02-24T05:59:18.908Z,99.99
2016-02-24T06:00:12.660Z,99.99
2016-02-24T06:01:12.694Z,99.99
2016-02-24T06:02:31.883Z,99.99
2016-02-24T06:03:12.700Z,99.99
2016-02-24T06:04:38.374Z,99.99
2016-02-24T06:05:16.596Z,99.99
2016-02-24T06:07:57.476Z,99.99
2016-02-24T06:08:31.823Z,99.99
2016-02-24T06:10:03.734Z,99.99
2016-02-24T06:10:41.984Z,99.99
2016-02-24T06:12:57.834Z,99.99
2016-02-24T06:13:57.837Z,99.99
2016-02-24T06:16:32.861Z,99.99
2016-02-24T06:17:13.660Z,99.99
2016-02-24T06:19:23.822Z,99.99
2016-02-24T06:20:23.825Z,99.99
2016-02-24T06:21:23.827Z,99.99
2016-02-24T06:22:49.533Z,99.99
2016-02-24T06:23:23.864Z,99.99
2016-02-24T06:24:55.179Z,99.99
2016-02-24T06:25:26.979Z,99.99
2016-02-24T06:26:27.106Z,99.99
2016-02-24T06:27:26.999Z,99.99
2016-02-24T06:28:27.001Z,99.99
2016-02-24T06:29:39.629Z,99.99
2016-02-24T06:31:07.916Z,99.99
2016-02-24T06:31:52.432Z,99.99
2016-02-24T06:32:46.216Z,99.99
2016-02-24T06:33:55.796Z,99.99
2016-02-24T06:34:55.799Z,99.99
2016-02-24T06:35:55.817Z,99.99
2016-02-24T06:36:55.899Z,99.99
2016-02-24T06:37:55.854Z,99.99
2016-02-24T06:38:55.873Z,99.99
2016-02-24T06:39:57.312Z,99.99
2016-02-24T06:41:02.162Z,99.99
2016-02-24T06:41:55.881Z,99.99
2016-02-24T06:43:08.684Z,99.99
2016-02-24T06:44:08.669Z,99.99
2016-02-24T06:44:55.757Z,99.99
2016-02-24T06:45:55.931Z,99.99
2016-02-24T06:46:58.004Z,99.99
2016-02-24T06:47:56.014Z,99.99
2016-02-24T06:48:55.969Z,99.99
2016-02-24T06:50:08.725Z,99.99
2016-02-24T06:50:55.975Z,99.99
2016-02-24T06:51:56.025Z,99.99
2016-02-24T06:52:56.027Z,99.99
2016-02-24T06:53:56.046Z,99.99
2016-02-24T06:54:56.033Z,99.99
2016-02-24T06:55:56.067Z,99.99
2016-02-24T06:56:56.054Z,99.99
2016-02-24T06:57:56.071Z,99.99
2016-02-24T06:58:56.075Z,99.99
2016-02-24T06:59:56.109Z,99.99
2016-02-24T07:00:56.112Z,99.99
2016-02-24T07:01:56.130Z,99.99
2016-02-24T07:02:56.133Z,99.99
2016-02-24T07:03:56.354Z,99.99
2016-02-24T07:04:56.153Z,99.99
2016-02-24T07:05:56.329Z,99.99
2016-02-24T07:06:56.471Z,99.99
2016-02-24T07:07:56.333Z,99.99
2016-02-24T07:08:56.665Z,99.99
2016-02-24T07:09:56.344Z,99.99
2016-02-24T07:10:56.518Z,99.15
2016-02-24T07:11:56.350Z,98.29
2016-02-24T07:12:56.508Z,96.97
2016-02-24T07:13:56.308Z,96.07
2016-02-24T07:14:56.529Z,94.18
2016-02-24T07:15:56.344Z,92.19
2016-02-24T07:16:56.472Z,91.48
2016-02-24T07:17:56.583Z,88.45
2016-02-24T07:18:56.431Z,88.82
2016-02-24T07:19:56.355Z,87.59
2016-02-24T07:20:56.404Z,87.26
2016-02-24T07:21:56.376Z,86.22
2016-02-24T07:22:56.379Z,85.55
2016-02-24T07:23:57.210Z,85.08
2016-02-24T07:24:58.696Z,84.61
2016-02-24T07:25:56.434Z,84.7
2016-02-24T07:27:15.798Z,84.13
2016-02-24T07:27:57.064Z,84.04
2016-02-24T07:28:56.458Z,84.13
2016-02-24T07:29:56.585Z,83.56
2016-02-24T07:30:56.494Z,83.94
2016-02-24T07:31:56.559Z,85.74
2016-02-24T07:32:56.499Z,86.69
2016-02-24T07:34:09.317Z,87.88
2016-02-24T07:34:56.536Z,88.54
2016-02-24T07:36:22.244Z,90.48
2016-02-24T07:37:31.794Z,90.86
2016-02-24T07:38:06.140Z,91.91
2016-02-24T07:39:06.158Z,92.57
2016-02-24T07:40:06.177Z,92.71
2016-02-24T07:41:06.180Z,92.43
2016-02-24T07:42:06.182Z,92.61
2016-02-24T07:43:07.622Z,93.47
2016-02-24T07:44:06.219Z,94.04
2016-02-24T07:45:06.238Z,93.28
2016-02-24T07:46:06.880Z,94.04
2016-02-24T07:47:06.414Z,93.47
2016-02-24T07:48:06.277Z,93.75
2016-02-24T07:49:06.280Z,93.85
2016-02-24T07:50:06.391Z,93.94
2016-02-24T07:51:06.363Z,93.85
2016-02-24T07:52:06.428Z,93.66
2016-02-24T07:53:06.525Z,94.04
2016-02-24T07:54:06.621Z,93.66
2016-02-24T07:55:06.561Z,93.23
2016-02-24T07:56:06.439Z,93.75
2016-02-24T07:57:06.457Z,93.51
2016-02-24T07:58:06.398Z,93.18
2016-02-24T07:59:06.416Z,93.7
2016-02-24T08:00:06.434Z,93.61
2016-02-24T08:01:06.452Z,93.04
2016-02-24T08:02:06.470Z,92
2016-02-24T08:03:06.474Z,92.66
2016-02-24T08:04:06.492Z,93.04
2016-02-24T08:05:19.384Z,91.62
2016-02-24T08:06:06.670Z,91.72
2016-02-24T08:08:41.987Z,91.43
2016-02-24T08:09:16.317Z,90.96
2016-02-24T08:10:16.492Z,90.86
2016-02-24T08:11:16.495Z,91.05
2016-02-24T08:12:16.467Z,90.3
2016-02-24T08:13:16.484Z,90.58
2016-02-24T08:14:16.456Z,89.92
2016-02-24T08:15:16.755Z,89.82
2016-02-24T08:16:16.477Z,89.92
2016-02-24T08:17:16.635Z,89.25
2016-02-24T08:18:16.466Z,89.06
2016-02-24T08:19:16.672Z,88.78
2016-02-24T08:20:16.519Z,89.06
2016-02-24T08:21:29.224Z,88.78
2016-02-24T08:22:16.508Z,89.06
2016-02-24T08:23:16.715Z,89.06
2016-02-24T08:24:16.530Z,88.4
2016-02-24T08:25:16.610Z,88.97
2016-02-24T08:26:16.566Z,88.68
2016-02-24T08:27:16.616Z,88.59
2016-02-24T08:28:16.587Z,88.97
2016-02-24T08:29:16.653Z,88.68
2016-02-24T08:30:16.609Z,88.68
2016-02-24T08:31:16.611Z,88.59
2016-02-24T08:32:17.254Z,88.68
2016-02-24T08:33:16.648Z,88.73
2016-02-24T08:34:16.713Z,89.06
2016-02-24T08:35:17.278Z,88.97
2016-02-24T08:36:16.796Z,88.64
2016-02-24T08:37:16.706Z,89.11
2016-02-24T08:38:16.723Z,88.73
2016-02-24T08:39:16.742Z,88.54
2016-02-24T08:40:16.807Z,88.17
2016-02-24T08:41:16.778Z,88.82
2016-02-24T08:42:16.781Z,88.64
2016-02-24T08:43:16.784Z,88.45
2016-02-24T08:44:16.786Z,88.73
2016-02-24T08:45:16.820Z,88.45
2016-02-24T08:46:16.855Z,88.54
2016-02-24T08:47:23.108Z,88.82
2016-02-24T08:48:16.860Z,88.45
2016-02-24T08:49:16.988Z,88.73
2016-02-24T08:50:16.881Z,88.35
2016-02-24T08:51:16.915Z,88.07
2016-02-24T08:52:16.918Z,88.07
2016-02-24T08:53:16.936Z,88.17
2016-02-24T08:54:23.219Z,87.78
2016-02-24T08:55:16.957Z,87.59
2016-02-24T08:56:16.991Z,86.55
2016-02-24T08:57:16.994Z,86.93
2016-02-24T08:58:17.012Z,86.74
2016-02-24T08:59:17.015Z,86.74
2016-02-24T09:00:17.033Z,87.02
2016-02-24T09:01:17.051Z,86.27
2016-02-24T09:02:17.085Z,85.7
2016-02-24T09:03:17.088Z,85.51
2016-02-24T09:04:17.090Z,85.65
2016-02-24T09:05:17.093Z,85.46
2016-02-24T09:06:17.159Z,85.08
2016-02-24T09:07:17.129Z,84.51
2016-02-24T09:08:17.179Z,84.7
2016-02-24T09:09:17.151Z,84.8
2016-02-24T09:10:17.154Z,84.99
2016-02-24T09:11:17.187Z,84.89
2016-02-24T09:12:17.206Z,85.27
2016-02-24T09:13:17.225Z,85.36
2016-02-24T09:14:17.227Z,84.7
2016-02-24T09:15:17.338Z,84.42
2016-02-24T09:16:17.264Z,84.99
2016-02-24T09:17:30.031Z,84.89
2016-02-24T09:18:17.300Z,84.42
2016-02-24T09:19:36.600Z,84.7
2016-02-24T09:20:17.305Z,83.47
2016-02-24T09:21:17.339Z,83.28
2016-02-24T09:22:17.342Z,83.56
2016-02-24T09:23:23.626Z,84.32
2016-02-24T09:24:17.472Z,84.7
2016-02-24T09:25:30.115Z,84.61
2016-02-24T09:26:17.463Z,84.42
2016-02-24T09:27:17.433Z,83.56
2016-02-24T09:28:17.436Z,83.09
2016-02-24T09:29:17.439Z,82.9
2016-02-24T09:30:17.566Z,83.75
2016-02-24T09:31:17.476Z,83.47
2016-02-24T09:32:17.510Z,84.32
2016-02-24T09:33:17.512Z,84.04
2016-02-24T09:34:17.545Z,84.42
2016-02-24T09:35:17.533Z,84.46
2016-02-24T09:36:17.567Z,83.32
2016-02-24T09:37:17.554Z,82.56
2016-02-24T09:38:17.573Z,83.04
2016-02-24T09:39:17.590Z,82.75
2016-02-24T09:40:17.609Z,83.04
2016-02-24T09:41:17.642Z,83.04
2016-02-24T09:42:17.631Z,83.13
2016-02-24T09:43:30.414Z,83.89
2016-02-24T09:44:17.666Z,83.98
2016-02-24T09:45:17.701Z,83.56
2016-02-24T09:46:17.703Z,83.98
2016-02-24T09:47:17.769Z,82.56
2016-02-24T09:48:17.740Z,83.04
2016-02-24T09:49:17.774Z,82.94
2016-02-24T09:50:17.761Z,82.56
2016-02-24T09:51:17.780Z,82.66
2016-02-24T09:52:18.407Z,83.7
2016-02-24T09:53:30.535Z,82.56
2016-02-24T09:54:17.835Z,82.75
2016-02-24T09:55:17.838Z,82.94
2016-02-24T09:56:17.855Z,81.99
2016-02-24T09:57:17.874Z,82.56
2016-02-24T09:58:17.892Z,82.18
2016-02-24T09:59:17.894Z,81.71
2016-02-24T10:00:17.929Z,81.99
2016-02-24T10:01:17.946Z,81.62
2016-02-24T10:02:17.996Z,81.33
2016-02-24T10:03:43.654Z,80.38
2016-02-24T10:04:18.018Z,80
2016-02-24T10:05:17.989Z,80.67
2016-02-24T10:06:18.007Z,81.24
2016-02-24T10:07:18.010Z,81.62
2016-02-24T10:08:18.028Z,80.76
2016-02-24T10:09:18.046Z,80.33
2016-02-24T10:10:18.065Z,79.19
2016-02-24T10:11:18.083Z,78.81
2016-02-24T10:12:18.101Z,78.81
2016-02-24T10:13:18.120Z,78.24
2016-02-24T10:14:24.389Z,78.81
2016-02-24T10:15:18.141Z,78.91
2016-02-24T10:16:18.159Z,79.28
2016-02-24T10:17:18.178Z,80.04
2016-02-24T10:18:18.195Z,78.05
2016-02-24T10:19:18.245Z,78.53
2016-02-24T10:20:18.217Z,78.72
2016-02-24T10:21:18.235Z,79.28
2016-02-24T10:22:18.269Z,78.43
2016-02-24T10:23:18.288Z,78.91
2016-02-24T10:24:18.290Z,77.67
2016-02-24T10:25:18.308Z,76.73
2016-02-24T10:26:18.311Z,75.15
2016-02-24T10:27:18.360Z,75.05
2016-02-24T10:28:18.347Z,75.15
2016-02-24T10:29:18.366Z,73.82
2016-02-24T10:30:18.368Z,73.72
2016-02-24T10:31:18.402Z,73.86
2016-02-24T10:32:18.421Z,71.96
2016-02-24T10:33:18.423Z,70.63
2016-02-24T10:34:18.536Z,70.25
2016-02-24T10:35:37.679Z,70.44
2016-02-24T10:36:18.479Z,69.91
2016-02-24T10:37:18.512Z,68.39
2016-02-24T10:38:18.515Z,67.72
2016-02-24T10:39:18.534Z,68.58
2016-02-24T10:40:18.551Z,69.24
2016-02-24T10:41:18.586Z,69.62
2016-02-24T10:42:18.620Z,69.81
2016-02-24T10:43:18.591Z,69.34
2016-02-24T10:44:18.626Z,69.43
2016-02-24T10:45:18.643Z,68.86
2016-02-24T10:46:20.067Z,69.49
2016-02-24T10:47:18.711Z,68.64
2016-02-24T10:48:18.683Z,69.96
2016-02-24T10:49:18.747Z,69.59
2016-02-24T10:50:31.485Z,69.11
2016-02-24T10:51:31.488Z,69.05
2016-02-24T10:52:18.756Z,68.77
2016-02-24T10:53:18.775Z,68.01
2016-02-24T10:54:18.792Z,68.01
2016-02-24T10:55:18.810Z,68.67
2016-02-24T10:56:18.830Z,68.86
2016-02-24T10:57:31.582Z,69.71
2016-02-24T10:58:18.865Z,68.29
2016-02-24T10:59:38.088Z,68.01
2016-02-24T11:00:18.918Z,69.53
2016-02-24T11:01:44.718Z,67.91
2016-02-24T11:02:18.939Z,66.49
2016-02-24T11:04:59.804Z,69.15
2016-02-24T11:05:34.166Z,67.91
2016-02-24T11:06:34.168Z,66.58
2016-02-24T11:07:34.171Z,66.87
2016-02-24T11:08:34.204Z,65.82
2016-02-24T11:09:34.223Z,65.44
2016-02-24T11:10:34.304Z,65.35
2016-02-24T11:11:46.995Z,64.49
2016-02-24T11:12:34.263Z,65.35
2016-02-24T11:13:34.298Z,66.49
2016-02-24T11:14:34.315Z,66.11
2016-02-24T11:15:34.318Z,66.2
2016-02-24T11:16:34.368Z,66.3
2016-02-24T11:17:34.386Z,66.39
2016-02-24T11:18:34.388Z,64.24
2016-02-24T11:19:34.407Z,63.83
2016-02-24T11:20:34.425Z,64.4
2016-02-24T11:21:34.443Z,64.49
2016-02-24T11:22:34.462Z,65.54
2016-02-24T11:23:34.480Z,65.25
2016-02-24T11:24:34.498Z,65.16
2016-02-24T11:25:34.516Z,64.78
2016-02-24T11:26:47.269Z,65.92
2016-02-24T11:27:40.819Z,66.2
2016-02-24T11:28:34.572Z,67.63
2016-02-24T11:29:34.590Z,67.72
2016-02-24T11:30:34.607Z,66.2
2016-02-24T11:31:34.627Z,65.67
2016-02-24T11:32:47.394Z,63.95
2016-02-24T11:33:40.928Z,63.67
2016-02-24T11:34:53.900Z,64.69
2016-02-24T11:35:34.715Z,66.01
2016-02-24T11:36:34.749Z,68.01
2016-02-24T11:37:47.487Z,69.02
2016-02-24T11:38:42.442Z,69.78
2016-02-24T11:39:34.773Z,71.01
2016-02-24T11:41:00.479Z,73.48
2016-02-24T11:41:34.809Z,74.3
2016-02-24T11:43:50.003Z,75.24
2016-02-24T11:44:50.020Z,76.39
2016-02-24T11:45:50.054Z,76.29
2016-02-24T11:46:50.073Z,77.2
2016-02-24T11:48:02.825Z,78.15
2016-02-24T11:48:50.110Z,78.15
2016-02-24T11:50:09.317Z,78.05
2016-02-24T11:50:53.380Z,78.95
2016-02-24T11:52:12.620Z,78.66
2016-02-24T11:54:21.360Z,75.81
2016-02-24T11:55:08.628Z,74.77
2016-02-24T11:56:30.912Z,71.48
2016-02-24T11:57:31.041Z,70.92
2016-02-24T11:58:53.324Z,70.82
2016-02-24T12:00:06.279Z,70.1
2016-02-24T12:00:50.157Z,70.1
2016-02-24T12:02:09.366Z,66.77
2016-02-24T12:04:24.605Z,68.52
2016-02-24T12:05:24.595Z,66.61
2016-02-24T12:06:37.331Z,63.2
2016-02-24T12:07:24.615Z,61.96
2016-02-24T12:08:50.322Z,62.05
2016-02-24T12:09:28.387Z,65.38
2016-02-24T12:10:59.717Z,62.62
2016-02-24T12:11:37.970Z,61.39
2016-02-24T12:13:09.288Z,63.86
2016-02-24T12:13:47.506Z,63.2
2016-02-24T12:15:44.512Z,62.62
2016-02-24T12:15:57.137Z,62.69
2016-02-24T12:16:57.124Z,65.54
2016-02-24T12:17:57.127Z,64.69
2016-02-24T12:19:09.898Z,62.88
2016-02-24T12:19:57.164Z,62.94
2016-02-24T12:21:16.388Z,65.5
2016-02-24T12:21:57.200Z,65.22
2016-02-24T12:24:32.646Z,65.95
2016-02-24T12:25:16.539Z,66.14
2016-02-24T12:26:31.729Z,67.37
2016-02-24T12:27:31.763Z,69.17
2016-02-24T12:29:28.737Z,68.98
2016-02-24T12:29:42.081Z,68.89
2016-02-24T12:30:42.084Z,68.79
2016-02-24T12:31:51.665Z,68.23
2016-02-24T12:32:51.667Z,69.08
2016-02-24T12:34:04.451Z,68.41
2016-02-24T12:34:51.703Z,68.32
2016-02-24T12:36:17.412Z,68.79
2016-02-24T12:36:51.740Z,67.94
2016-02-24T12:38:24.464Z,66.71
2016-02-24T12:38:56.230Z,66.04
2016-02-24T12:41:02.517Z,65.03
2016-02-24T12:41:56.285Z,63.79
2016-02-24T12:43:11.525Z,64.46
2016-02-24T12:44:11.512Z,65.79
2016-02-24T12:45:44.250Z,63.26
2016-02-24T12:46:22.625Z,63.73
2016-02-24T12:47:53.915Z,62.21
2016-02-24T12:48:28.907Z,60.72
2016-02-24T12:50:38.626Z,59.77
2016-02-24T12:51:25.916Z,60.16
2016-02-24T12:52:38.634Z,62.05
2016-02-24T12:53:25.945Z,62.24
2016-02-24T12:54:45.162Z,64.21
2016-02-24T12:55:29.068Z,64.75
2016-02-24T12:57:51.412Z,66.99
2016-02-24T12:58:54.600Z,70.12
2016-02-24T13:00:04.166Z,73.69
2016-02-24T13:01:13.184Z,75.68
2016-02-24T13:02:16.296Z,77.48
2016-02-24T13:03:25.860Z,78.3
2016-02-24T13:04:35.410Z,78.91
2016-02-24T13:05:44.960Z,80.29
2016-02-24T13:06:54.524Z,80.67
2016-02-24T13:08:04.073Z,81.24
2016-02-24T13:09:29.750Z,82.09
2016-02-24T13:11:16.254Z,82.18
2016-02-24T13:12:16.288Z,82.56
2016-02-24T13:14:31.498Z,82.47
2016-02-24T13:15:31.516Z,83.23
2016-02-24T13:16:31.675Z,83.56
2016-02-24T13:17:31.537Z,84.51
2016-02-24T13:18:44.290Z,85.03
2016-02-24T13:19:31.589Z,83.89
2016-02-24T13:20:50.779Z,84.51
2016-02-24T13:21:31.829Z,85.46
2016-02-24T13:22:50.831Z,83.8
2016-02-24T13:23:32.100Z,83.47
2016-02-24T13:24:57.117Z,84.7
2016-02-24T13:25:31.684Z,84.32
2016-02-24T13:27:10.094Z,84.04
2016-02-24T13:27:48.110Z,83.04
2016-02-24T13:29:00.926Z,83.61
2016-02-24T13:30:00.881Z,80.86
2016-02-24T13:31:07.369Z,80.19
2016-02-24T13:31:48.184Z,78.77
2016-02-24T13:33:13.877Z,78.96
2016-02-24T13:33:48.220Z,78.96
2016-02-24T13:34:48.223Z,78.49
2016-02-24T13:35:57.819Z,80
2016-02-24T13:36:57.838Z,80.48
2016-02-24T13:38:10.578Z,80.29
2016-02-24T13:38:57.859Z,80.53
2016-02-24T13:39:57.877Z,81.33
2016-02-24T13:41:00.942Z,80.29
2016-02-24T13:42:00.977Z,79.58
2016-02-24T13:43:32.294Z,80.25
2016-02-24T13:44:16.171Z,80.44
2016-02-24T13:45:16.207Z,80.34
2016-02-24T13:46:16.209Z,81.2
2016-02-24T13:47:28.961Z,81.38
2016-02-24T13:49:37.701Z,80
2016-02-24T13:50:31.453Z,80.19
2016-02-24T13:51:44.207Z,78.87
2016-02-24T13:52:31.506Z,77.73
2016-02-24T13:55:43.859Z,78.96
2016-02-24T13:56:43.907Z,79.06
2016-02-24T13:57:56.628Z,78.87
2016-02-24T13:58:43.928Z,79.15
2016-02-24T14:00:03.150Z,79.15
2016-02-24T14:00:43.964Z,79.06
2016-02-24T14:02:15.283Z,78.58
2016-02-24T14:02:59.798Z,79.15
2016-02-24T14:05:09.360Z,77.92
2016-02-24T14:06:40.675Z,77.64
2016-02-24T14:07:20.334Z,78.02
2016-02-24T14:08:51.665Z,77.92
2016-02-24T14:09:35.559Z,78.67
2016-02-24T14:10:35.670Z,79.06
2016-02-24T14:11:35.579Z,78.96
2016-02-24T14:12:35.644Z,79.82
2016-02-24T14:13:35.616Z,79.63
2016-02-24T14:14:35.620Z,79.53